Impacts TAF Board
For situational awareness. Not to be used for flight planning purposes.
IDs:

KLAX - Los Angeles Intl, CA, US

Issued at 0302 UTC 12 Dec 2018
Updated at 0335 UTC 12 Dec 2018
Potential Impact None Slight Moderate High
Time0253Z 12/04Z 12/05Z 12/06Z 12/07Z 12/08Z 12/09Z 12/10Z 12/11Z 12/12Z 12/13Z 12/14Z 12/15Z 12/16Z>>
Type OBS PRVL PRVL PRVL PRVL PRVL PRVL PRVL PRVL PRVL PRVL PRVL PRVL PRVL
VIS 10 >6 >6 >6 >6 >6 >6 >6 >6 5 5 5 5 5
CIG -- -- -- -- -- -- -- -- -- 12 12 12 12 12
Cover CLR SCT SCT SCT SCT SCT SCT SCT SCT BKN BKN BKN BKN BKN
FltCat VFR VFR VFR VFR VFR VFR VFR VFR VFR MVFR MVFR MVFR MVFR MVFR
WX -- -- -- -- -- -- -- -- -- HZ HZ HZ HZ HZ
WDir 240 VRB VRB VRB VRB VRB VRB VRB VRB 80 80 80 80 80
WSpd 8 5 5 5 5 5 5 5 5 3 3 3 3 3
WGst -- -- -- -- -- -- -- -- -- -- -- -- -- --
Raw TAF
KLAX 120302Z 1203/1306 24008KT P6SM SCT150
  FM120400 VRB05KT P6SM SCT150
  FM121200 08003KT 5SM HZ BKN012
  FM121800 10004KT P6SM SKC
  FM122000 25010KT P6SM SKC
  FM130300 27004KT P6SM SCT250


Raw METAR
KLAX 120253Z 24008KT 10SM CLR 16/12 A3003 RMK AO2 SLP167 T01560117 51011
KLAX 120153Z 26012KT 10SM CLR 16/12 A3001 RMK AO2 SLP163 T01610122
KLAX 120053Z 25009KT 7SM CLR 16/13 A3000 RMK AO2 SLP159 T01610128

METAR Board
Radar Display
Forecast Discussion
For situational awareness. Not to be used for flight planning purposes.